Time;durP1;ratioP1;P1;durP2;ratioP2;P2;SDS_P1;SDS_P2;PMS_P1;PMS_P2;Temp;Humidity;BMP_temperature;BMP_pressure;BME280_temperature;BME280_humidity;BME280_pressure;Samples;Min_cycle;Max_cycle;Signal;HPM_P1;HPM_P2
2022/04/23 00:00:54;;;;;;;10.27;9.18;;;11.60;99.90;;;;;;4950506;28;20148;-71
2022/04/23 00:03:19;;;;;;;10.88;9.13;;;11.60;99.90;;;;;;4951975;29;20122;-71
2022/04/23 00:05:45;;;;;;;11.40;10.20;;;11.60;99.90;;;;;;4946573;28;20052;-72
2022/04/23 00:08:11;;;;;;;10.73;9.48;;;11.60;99.90;;;;;;4934474;29;20039;-72
2022/04/23 00:10:37;;;;;;;11.35;10.10;;;11.60;99.90;;;;;;4944815;29;20155;-71
2022/04/23 00:13:04;;;;;;;14.60;11.23;;;11.50;99.90;;;;;;4952172;29;20039;-72
2022/04/23 00:15:37;;;;;;;14.60;10.45;;;11.50;99.90;;;;;;4951897;28;20087;-71
2022/04/23 00:18:10;;;;;;;12.93;10.25;;;11.50;99.90;;;;;;4929381;29;20035;-72
2022/04/23 00:20:37;;;;;;;14.90;11.23;;;11.50;99.90;;;;;;4970768;28;20043;-71
2022/04/23 00:23:05;;;;;;;15.38;10.80;;;11.50;99.90;;;;;;4933013;29;20047;-71
2022/04/23 00:25:31;;;;;;;12.15;10.95;;;11.50;99.90;;;;;;4955184;29;20039;-71
2022/04/23 00:27:57;;;;;;;14.43;11.43;;;11.40;99.90;;;;;;4960005;28;20054;-71
2022/04/23 00:30:23;;;;;;;14.60;11.77;;;11.40;99.90;;;;;;4944410;29;20509;-72
2022/04/23 00:32:49;;;;;;;13.93;11.77;;;11.40;99.90;;;;;;4949443;29;20094;-71
2022/04/23 00:35:16;;;;;;;13.75;12.27;;;11.40;99.90;;;;;;4951716;29;20078;-71
2022/04/23 00:37:42;;;;;;;13.73;12.25;;;11.40;99.90;;;;;;4952328;28;20043;-72
2022/04/23 00:40:16;;;;;;;14.77;11.73;;;11.30;99.90;;;;;;4956588;28;20067;-71
2022/04/23 00:42:56;;;;;;;13.50;11.65;;;11.30;99.90;;;;;;4950413;29;20043;-71
2022/04/23 00:45:22;;;;;;;15.50;11.98;;;11.30;99.90;;;;;;4967219;28;20671;-71
2022/04/23 00:47:49;;;;;;;14.25;12.10;;;11.30;99.90;;;;;;4956695;28;20046;-72
2022/04/23 00:50:15;;;;;;;14.77;12.50;;;11.30;99.90;;;;;;4956195;28;20486;-71
2022/04/23 00:52:41;;;;;;;14.30;12.00;;;11.30;99.90;;;;;;4938693;29;20036;-72
2022/04/23 00:55:08;;;;;;;14.65;11.95;;;11.30;99.90;;;;;;4954412;28;20047;-71
2022/04/23 00:57:35;;;;;;;17.85;12.50;;;11.20;99.90;;;;;;4955238;28;20110;-71
2022/04/23 01:00:06;;;;;;;14.38;12.77;;;11.20;99.90;;;;;;4948057;29;20051;-72
2022/04/23 01:02:32;;;;;;;15.73;12.90;;;11.20;99.90;;;;;;4949278;28;20047;-73
2022/04/23 01:04:58;;;;;;;15.27;12.93;;;11.20;99.90;;;;;;4953222;28;20512;-72
2022/04/23 01:07:24;;;;;;;13.98;12.48;;;11.20;99.90;;;;;;4956599;28;20039;-71
2022/04/23 01:09:51;;;;;;;13.65;12.35;;;11.20;99.90;;;;;;4935149;29;20044;-71
2022/04/23 01:12:19;;;;;;;19.05;12.00;;;11.20;99.90;;;;;;4954914;29;20410;-72
2022/04/23 01:15:02;;;;;;;15.40;13.07;;;11.20;99.90;;;;;;4954078;29;20130;-72
2022/04/23 01:17:28;;;;;;;14.70;13.20;;;11.20;99.90;;;;;;4949815;28;20594;-71
2022/04/23 01:19:54;;;;;;;14.77;13.10;;;11.20;99.90;;;;;;4954642;29;20043;-71
2022/04/23 01:22:22;;;;;;;16.75;12.95;;;11.10;99.90;;;;;;4955573;28;20044;-71
2022/04/23 01:24:50;;;;;;;14.95;13.35;;;11.10;99.90;;;;;;4958397;28;20505;-71
2022/04/23 01:27:16;;;;;;;16.13;13.40;;;11.10;99.90;;;;;;4952445;28;20710;-71
2022/04/23 01:29:41;;;;;;;15.18;13.63;;;11.10;99.90;;;;;;4952724;28;20048;-72
2022/04/23 01:32:07;;;;;;;15.68;14.07;;;11.00;99.90;;;;;;4937678;29;20036;-72
2022/04/23 01:34:33;;;;;;;15.05;13.48;;;10.90;99.90;;;;;;4956246;29;20090;-72
2022/04/23 01:36:59;;;;;;;15.60;13.48;;;10.80;99.90;;;;;;4963238;28;20047;-72
2022/04/23 01:39:24;;;;;;;16.58;13.23;;;10.80;99.90;;;;;;4956071;29;20054;-71
2022/04/23 01:41:50;;;;;;;15.45;13.85;;;10.70;99.90;;;;;;4965099;28;20072;-71
2022/04/23 01:44:16;;;;;;;15.02;13.40;;;10.70;99.90;;;;;;4944170;29;20039;-72
2022/04/23 01:46:41;;;;;;;15.05;13.00;;;10.60;99.90;;;;;;4953439;29;20047;-72
2022/04/23 01:49:07;;;;;;;16.77;13.38;;;10.50;99.90;;;;;;4947926;28;20094;-72
2022/04/23 01:51:33;;;;;;;14.23;12.77;;;10.50;99.90;;;;;;4949074;29;20043;-72
2022/04/23 01:53:58;;;;;;;15.32;13.38;;;10.50;99.90;;;;;;4950069;29;20051;-72
2022/04/23 01:56:25;;;;;;;15.88;13.93;;;10.50;99.90;;;;;;4937523;29;20046;-72
2022/04/23 01:58:51;;;;;;;15.63;13.98;;;10.40;99.90;;;;;;4958217;28;20498;-72
2022/04/23 02:01:17;;;;;;;14.85;13.30;;;10.40;99.90;;;;;;4947260;29;20061;-72
2022/04/23 02:03:45;;;;;;;14.77;13.27;;;10.40;99.90;;;;;;4949584;28;20083;-72
2022/04/23 02:06:12;;;;;;;14.57;13.07;;;10.30;99.90;;;;;;4968153;28;20082;-72
2022/04/23 02:08:38;;;;;;;16.13;12.60;;;10.30;99.90;;;;;;4950235;28;20548;-72
2022/04/23 02:11:04;;;;;;;15.60;14.10;;;10.20;99.90;;;;;;4946673;29;20101;-72
2022/04/23 02:13:31;;;;;;;15.10;13.48;;;10.20;99.90;;;;;;4946404;29;20043;-72
2022/04/23 02:15:57;;;;;;;15.40;13.80;;;10.20;99.90;;;;;;4943734;29;20039;-72
2022/04/23 02:18:23;;;;;;;14.73;13.23;;;10.20;99.90;;;;;;4935118;29;20045;-72
2022/04/23 02:20:49;;;;;;;16.10;13.73;;;10.10;99.90;;;;;;4947957;28;20043;-72
2022/04/23 02:23:14;;;;;;;15.95;12.70;;;10.10;99.90;;;;;;4966326;28;20046;-72
2022/04/23 02:25:42;;;;;;;15.25;12.90;;;10.10;99.90;;;;;;4952568;28;20055;-72
2022/04/23 02:28:07;;;;;;;15.10;13.45;;;10.10;99.90;;;;;;4944515;28;20494;-72
2022/04/23 02:30:34;;;;;;;13.82;12.30;;;10.10;99.90;;;;;;4952369;29;20051;-72
2022/04/23 02:33:00;;;;;;;15.02;12.68;;;10.00;99.90;;;;;;4952870;28;20058;-71
2022/04/23 02:35:26;;;;;;;13.27;11.43;;;10.10;99.90;;;;;;4951520;28;20039;-71
2022/04/23 02:37:57;;;;;;;13.00;11.60;;;10.10;99.90;;;;;;4947959;28;20475;-71
2022/04/23 02:40:23;;;;;;;19.50;11.95;;;10.00;99.90;;;;;;4950371;28;20122;-72
2022/04/23 02:42:51;;;;;;;15.27;11.65;;;10.00;99.90;;;;;;4962716;28;20134;-72
2022/04/23 02:45:20;;;;;;;14.98;11.40;;;10.00;99.90;;;;;;4948320;28;20043;-72
2022/04/23 02:47:50;;;;;;;13.85;11.38;;;10.00;99.90;;;;;;4947634;28;20039;-72
2022/04/23 02:50:25;;;;;;;13.20;11.00;;;10.00;99.90;;;;;;4945504;28;20071;-72
2022/04/23 02:52:51;;;;;;;12.35;10.95;;;9.90;99.90;;;;;;4948367;28;20046;-72
2022/04/23 02:55:17;;;;;;;12.73;10.40;;;9.90;99.90;;;;;;4948229;28;20047;-72
2022/04/23 02:57:43;;;;;;;13.48;10.60;;;10.00;99.90;;;;;;4950963;28;20043;-71
2022/04/23 03:00:10;;;;;;;14.00;10.63;;;10.00;99.90;;;;;;4945515;28;20195;-72
2022/04/23 03:02:40;;;;;;;14.00;10.70;;;10.00;99.90;;;;;;4948696;28;20047;-72
2022/04/23 03:05:11;;;;;;;15.05;10.82;;;10.00;99.90;;;;;;4949196;28;20059;-71
2022/04/23 03:07:37;;;;;;;13.23;11.48;;;9.90;99.90;;;;;;4964539;28;20039;-71
2022/04/23 03:10:04;;;;;;;12.10;10.77;;;9.90;99.90;;;;;;4933804;29;20043;-71
2022/04/23 03:12:30;;;;;;;12.95;11.07;;;9.90;99.90;;;;;;4941986;28;20122;-71
2022/04/23 03:14:56;;;;;;;13.00;11.43;;;9.90;99.90;;;;;;4953309;29;20182;-71
2022/04/23 03:17:22;;;;;;;14.63;11.32;;;9.80;99.90;;;;;;4936727;29;20102;-71
2022/04/23 03:19:48;;;;;;;14.90;11.25;;;9.80;99.90;;;;;;4952726;29;20055;-71
2022/04/23 03:22:16;;;;;;;13.48;11.48;;;9.80;99.90;;;;;;4954018;29;20078;-71
2022/04/23 03:24:42;;;;;;;13.93;10.98;;;9.80;99.90;;;;;;4968754;28;20098;-72
2022/04/23 03:27:08;;;;;;;16.15;11.23;;;9.80;99.90;;;;;;4952606;28;20043;-71
2022/04/23 03:29:34;;;;;;;14.02;11.95;;;9.80;99.90;;;;;;4952513;29;20109;-71
2022/04/23 03:32:00;;;;;;;12.60;11.23;;;9.80;99.90;;;;;;4952859;28;20113;-71
2022/04/23 03:34:26;;;;;;;12.73;10.88;;;9.70;99.90;;;;;;4952304;29;20047;-71
2022/04/23 03:36:53;;;;;;;12.90;11.60;;;9.80;99.90;;;;;;4954047;28;20047;-71
2022/04/23 03:39:19;;;;;;;14.30;11.25;;;9.80;99.90;;;;;;4952689;28;20039;-71
2022/04/23 03:41:45;;;;;;;19.08;11.75;;;9.80;99.90;;;;;;4953655;28;20047;-71
2022/04/23 03:44:11;;;;;;;13.15;11.75;;;9.70;99.90;;;;;;4948853;29;20048;-71
2022/04/23 03:46:36;;;;;;;13.20;11.48;;;9.60;99.90;;;;;;4946274;29;20098;-71
2022/04/23 03:49:02;;;;;;;15.02;11.50;;;9.60;99.90;;;;;;4942933;29;20094;-71
2022/04/23 03:51:28;;;;;;;17.17;11.85;;;9.60;99.90;;;;;;4966954;28;20134;-71
2022/04/23 03:53:53;;;;;;;13.68;11.35;;;9.50;99.90;;;;;;4952524;29;20043;-71
2022/04/23 03:56:19;;;;;;;15.35;12.15;;;9.50;99.90;;;;;;4953427;29;20043;-70
2022/04/23 03:58:45;;;;;;;14.52;11.13;;;9.50;99.90;;;;;;4953691;28;20043;-71
2022/04/23 04:01:10;;;;;;;14.13;11.05;;;9.50;99.90;;;;;;4951392;29;20123;-71
2022/04/23 04:03:36;;;;;;;12.57;10.68;;;9.40;99.90;;;;;;4941387;29;20049;-70
2022/04/23 04:06:02;;;;;;;13.13;10.52;;;9.40;99.90;;;;;;4968291;28;20046;-71
2022/04/23 04:08:28;;;;;;;13.77;11.52;;;9.40;99.90;;;;;;4949023;28;20111;-71
2022/04/23 04:10:54;;;;;;;13.60;10.77;;;9.40;99.90;;;;;;4944365;29;20087;-71
2022/04/23 04:13:20;;;;;;;13.52;11.40;;;9.40;99.90;;;;;;4967961;28;20498;-71
2022/04/23 04:15:47;;;;;;;13.73;10.95;;;9.30;99.90;;;;;;4950632;29;20055;-72
2022/04/23 04:18:14;;;;;;;12.00;10.45;;;9.30;99.90;;;;;;4932889;29;20127;-71
2022/04/23 04:20:40;;;;;;;13.60;11.13;;;9.30;99.90;;;;;;4932762;29;20051;-71
2022/04/23 04:23:06;;;;;;;19.27;11.18;;;9.30;99.90;;;;;;4942114;29;20043;-71
2022/04/23 04:25:32;;;;;;;12.73;10.68;;;9.20;99.90;;;;;;4951161;29;20125;-72
2022/04/23 04:28:02;;;;;;;13.15;11.20;;;9.20;99.90;;;;;;4953306;28;20463;-71
2022/04/23 04:30:27;;;;;;;12.65;11.35;;;9.20;99.90;;;;;;4953067;28;20046;-71
2022/04/23 04:32:53;;;;;;;13.30;11.32;;;9.10;99.90;;;;;;4952088;29;20490;-71
2022/04/23 04:35:19;;;;;;;15.35;11.07;;;9.10;99.90;;;;;;4953278;29;20493;-71
2022/04/23 04:37:45;;;;;;;13.05;11.63;;;9.10;99.90;;;;;;4951847;28;20394;-71
2022/04/23 04:40:11;;;;;;;14.63;11.00;;;9.10;99.90;;;;;;4952921;28;20048;-71
2022/04/23 04:42:36;;;;;;;12.38;10.85;;;9.10;99.90;;;;;;4952481;29;20039;-71
2022/04/23 04:45:03;;;;;;;13.95;11.07;;;9.10;99.90;;;;;;4943772;29;20518;-71
2022/04/23 04:47:29;;;;;;;12.00;10.73;;;9.10;99.90;;;;;;4944320;28;20129;-71
2022/04/23 04:49:55;;;;;;;12.05;10.85;;;9.10;99.90;;;;;;4952962;29;20490;-71
2022/04/23 04:52:20;;;;;;;12.75;10.45;;;9.10;99.90;;;;;;4952061;28;20051;-71
2022/04/23 04:54:46;;;;;;;11.85;10.18;;;9.10;99.90;;;;;;4951886;29;20629;-71
2022/04/23 04:57:12;;;;;;;12.65;10.80;;;9.10;99.90;;;;;;4951918;28;20047;-71
2022/04/23 04:59:38;;;;;;;13.00;10.35;;;9.10;99.90;;;;;;4946638;29;20039;-71
2022/04/23 05:02:05;;;;;;;12.80;9.95;;;9.10;99.90;;;;;;4952937;28;20039;-71
2022/04/23 05:04:31;;;;;;;11.55;10.35;;;9.10;99.90;;;;;;4940924;28;20532;-71
2022/04/23 05:06:57;;;;;;;13.15;10.63;;;9.10;99.90;;;;;;4955519;29;20625;-71
2022/04/23 05:09:23;;;;;;;12.25;10.93;;;9.20;99.90;;;;;;4955445;28;20039;-71
2022/04/23 05:11:49;;;;;;;13.07;10.32;;;9.10;99.90;;;;;;4954956;29;20075;-71
2022/04/23 05:14:16;;;;;;;12.25;10.95;;;9.10;99.90;;;;;;4955165;29;20053;-71
2022/04/23 05:16:43;;;;;;;12.27;10.30;;;9.10;99.90;;;;;;4950493;28;20490;-71
2022/04/23 05:19:08;;;;;;;10.80;9.70;;;9.10;99.90;;;;;;4950820;29;20094;-71
2022/04/23 05:21:34;;;;;;;12.23;10.02;;;9.20;99.90;;;;;;4948389;28;20043;-71
2022/04/23 05:23:59;;;;;;;11.85;10.35;;;9.20;99.90;;;;;;4949445;29;20122;-72
2022/04/23 05:26:25;;;;;;;12.88;10.25;;;9.20;99.90;;;;;;4942860;29;20086;-71
2022/04/23 05:28:51;;;;;;;10.63;9.63;;;9.20;99.90;;;;;;4954717;28;20076;-71
2022/04/23 05:31:16;;;;;;;11.07;9.15;;;9.40;99.90;;;;;;4954740;29;20050;-71
2022/04/23 05:33:42;;;;;;;12.32;9.55;;;9.40;99.90;;;;;;4949347;29;20054;-72
2022/04/23 05:36:08;;;;;;;10.80;9.70;;;9.40;99.90;;;;;;4954769;29;20471;-71
2022/04/23 05:38:37;;;;;;;9.52;8.60;;;9.40;99.90;;;;;;4954427;28;20049;-71
2022/04/23 05:41:03;;;;;;;12.10;9.77;;;9.50;99.90;;;;;;4954768;29;20106;-71
2022/04/23 05:43:29;;;;;;;9.73;8.60;;;9.50;99.90;;;;;;4954372;29;20042;-71
2022/04/23 05:45:57;;;;;;;9.63;8.60;;;9.60;99.90;;;;;;4938393;29;20047;-71
2022/04/23 05:48:23;;;;;;;12.30;9.00;;;9.70;99.90;;;;;;4940882;28;20562;-71
2022/04/23 05:50:49;;;;;;;9.65;8.70;;;9.70;99.90;;;;;;4935679;29;20495;-71
2022/04/23 05:53:15;;;;;;;9.23;8.23;;;9.80;99.90;;;;;;4950244;29;20126;-71
2022/04/23 05:55:41;;;;;;;9.68;8.48;;;9.80;99.90;;;;;;4955477;29;20454;-70
2022/04/23 05:58:06;;;;;;;9.70;8.75;;;9.90;99.90;;;;;;4970290;28;20093;-71
2022/04/23 06:00:32;;;;;;;11.27;8.55;;;9.90;99.90;;;;;;4935261;29;20127;-71
2022/04/23 06:02:57;;;;;;;10.35;9.00;;;10.00;99.90;;;;;;4935395;29;20046;-71
2022/04/23 06:05:23;;;;;;;9.93;9.02;;;10.00;99.90;;;;;;4939874;29;20042;-70
2022/04/23 06:07:49;;;;;;;10.60;9.02;;;10.10;99.90;;;;;;4954685;28;20042;-70
2022/04/23 06:10:15;;;;;;;11.43;9.00;;;10.10;99.90;;;;;;4943390;29;20123;-71
2022/04/23 06:12:40;;;;;;;10.43;9.43;;;10.20;99.90;;;;;;4951695;29;20051;-71
2022/04/23 06:15:06;;;;;;;9.75;8.85;;;10.30;99.90;;;;;;4943221;29;20180;-71
2022/04/23 06:17:33;;;;;;;10.88;9.30;;;10.30;99.90;;;;;;4948959;28;20047;-71
2022/04/23 06:19:59;;;;;;;15.10;9.02;;;10.30;99.90;;;;;;4960914;28;20093;-71
2022/04/23 06:22:25;;;;;;;10.82;9.07;;;10.40;99.90;;;;;;4953961;29;20131;-71
2022/04/23 06:24:51;;;;;;;10.50;9.40;;;10.50;99.90;;;;;;4946572;29;20142;-71
2022/04/23 06:27:17;;;;;;;11.80;10.05;;;10.50;99.90;;;;;;4950309;28;20051;-71
2022/04/23 06:29:43;;;;;;;10.57;9.48;;;10.60;99.90;;;;;;4937646;29;20047;-71
2022/04/23 06:32:09;;;;;;;14.30;9.68;;;10.60;99.90;;;;;;4953953;29;20379;-71
2022/04/23 06:34:37;;;;;;;12.48;10.18;;;10.70;99.90;;;;;;4954067;29;20047;-71
2022/04/23 06:37:03;;;;;;;11.00;10.00;;;10.70;99.90;;;;;;4969790;28;20047;-71
2022/04/23 06:39:29;;;;;;;11.00;9.88;;;10.80;99.90;;;;;;4953595;29;20051;-71
2022/04/23 06:41:54;;;;;;;10.98;9.60;;;10.80;99.90;;;;;;4969103;28;20059;-71
2022/04/23 06:44:20;;;;;;;14.68;9.75;;;10.90;99.90;;;;;;4951397;28;20046;-71
2022/04/23 06:46:46;;;;;;;12.18;9.75;;;11.00;99.90;;;;;;4949287;29;20284;-70
2022/04/23 06:49:11;;;;;;;11.20;10.10;;;11.10;99.90;;;;;;4942449;29;20086;-71
2022/04/23 06:51:37;;;;;;;11.32;10.20;;;11.10;99.90;;;;;;4967214;28;20051;-71
2022/04/23 06:54:04;;;;;;;11.80;10.23;;;11.10;99.90;;;;;;4952562;28;20129;-72
2022/04/23 06:56:30;;;;;;;13.90;10.38;;;11.20;99.90;;;;;;4951279;29;20086;-71
2022/04/23 06:58:56;;;;;;;12.15;10.25;;;11.40;99.90;;;;;;4943384;28;20052;-72
2022/04/23 07:01:21;;;;;;;12.15;10.23;;;11.40;99.90;;;;;;4952100;29;20043;-71
2022/04/23 07:03:47;;;;;;;11.65;10.43;;;11.50;99.90;;;;;;4953189;29;20050;-71
2022/04/23 07:06:13;;;;;;;10.45;9.40;;;11.60;99.90;;;;;;4954122;29;20046;-72
2022/04/23 07:08:40;;;;;;;11.60;10.10;;;11.70;99.90;;;;;;4954291;28;20053;-72
2022/04/23 07:11:06;;;;;;;14.07;10.18;;;11.80;99.90;;;;;;4952596;29;20050;-72
2022/04/23 07:13:32;;;;;;;11.45;9.40;;;11.90;99.90;;;;;;4969125;28;20043;-71
2022/04/23 07:15:58;;;;;;;11.18;10.07;;;12.00;99.90;;;;;;4947094;28;20043;-71
2022/04/23 07:18:24;;;;;;;10.38;9.23;;;12.00;99.90;;;;;;4954226;28;20082;-72
2022/04/23 07:20:50;;;;;;;11.45;9.52;;;12.20;99.90;;;;;;4968753;28;20114;-72
2022/04/23 07:26:00;;;;;;;11.80;9.82;;;12.40;99.90;;;;;;4952490;28;20047;-71
2022/04/23 07:28:25;;;;;;;11.50;10.30;;;12.50;99.90;;;;;;4968529;28;20039;-72
2022/04/23 07:30:51;;;;;;;11.10;9.95;;;12.60;99.90;;;;;;4952693;29;20059;-72
2022/04/23 07:38:45;;;;;;;10.90;9.55;;;12.90;99.90;;;;;;4952445;28;20062;-72
2022/04/23 07:41:11;;;;;;;12.18;10.13;;;13.10;99.90;;;;;;4952408;29;20643;-72
2022/04/23 07:43:37;;;;;;;12.35;10.45;;;13.20;99.90;;;;;;4936669;29;20055;-72
2022/04/23 07:46:03;;;;;;;11.05;9.95;;;13.30;99.40;;;;;;4948497;28;20054;-72
2022/04/23 07:48:29;;;;;;;11.95;9.73;;;13.30;99.90;;;;;;4933172;29;20050;-72
2022/04/23 07:50:54;;;;;;;10.98;9.25;;;13.50;99.90;;;;;;4949001;29;20134;-72
2022/04/23 07:53:20;;;;;;;11.10;9.85;;;13.60;98.80;;;;;;4945761;29;20040;-72
2022/04/23 07:55:46;;;;;;;10.90;9.80;;;13.70;99.20;;;;;;4947131;29;20047;-72
2022/04/23 07:58:11;;;;;;;12.27;9.80;;;13.80;98.00;;;;;;4953626;28;20047;-72
2022/04/23 08:00:44;;;;;;;10.55;9.45;;;13.80;98.20;;;;;;4968133;28;20127;-72
2022/04/23 08:03:10;;;;;;;;;;;14.00;97.00;;;;;;4952841;29;20039;-72
2022/04/23 08:05:35;;;;;;;15.55;9.82;;;14.10;96.90;;;;;;4952103;28;19949;-72
2022/04/23 08:08:02;;;;;;;13.88;9.15;;;14.20;96.90;;;;;;4952742;28;20047;-72
2022/04/23 08:10:27;;;;;;;12.30;9.20;;;14.40;95.50;;;;;;4952009;29;20050;-71
2022/04/23 08:12:54;;;;;;;11.73;9.40;;;14.50;92.00;;;;;;4952006;29;20175;-72
2022/04/23 08:15:20;;;;;;;18.65;8.85;;;14.60;91.00;;;;;;4947344;29;20093;-72
2022/04/23 08:17:47;;;;;;;15.55;7.97;;;14.70;86.80;;;;;;4953463;28;20035;-72
2022/04/23 08:20:13;;;;;;;12.63;7.50;;;14.80;81.90;;;;;;4951766;29;20043;-72
2022/04/23 08:22:39;;;;;;;11.45;8.20;;;14.80;86.10;;;;;;4952250;29;20046;-72
2022/04/23 08:25:05;;;;;;;9.05;7.70;;;15.00;84.70;;;;;;4949853;29;20051;-72
2022/04/23 08:27:30;;;;;;;11.05;7.70;;;15.10;82.60;;;;;;4951988;28;20047;-72
2022/04/23 08:32:41;;;;;;;9.88;7.55;;;15.30;79.00;;;;;;4953629;29;20043;-71
2022/04/23 08:35:07;;;;;;;8.43;7.53;;;15.40;76.90;;;;;;4953398;29;20363;-71
2022/04/23 08:37:34;;;;;;;10.95;7.90;;;15.40;73.40;;;;;;4951813;28;20075;-72
2022/04/23 08:40:00;;;;;;;10.13;8.15;;;15.50;73.30;;;;;;4954270;29;20090;-72
2022/04/23 08:42:26;;;;;;;8.73;7.75;;;15.50;72.20;;;;;;4945699;29;20079;-72
2022/04/23 08:44:53;;;;;;;8.48;7.68;;;15.60;72.20;;;;;;4970597;28;20093;-72
2022/04/23 08:47:23;;;;;;;10.02;7.93;;;15.70;73.00;;;;;;4970274;28;20123;-72
2022/04/23 08:49:56;;;;;;;10.43;8.68;;;15.80;70.60;;;;;;4954423;29;20401;-72
2022/04/23 08:52:32;;;;;;;8.10;7.30;;;15.80;69.30;;;;;;4953360;28;20094;-72
2022/04/23 08:55:08;;;;;;;10.20;7.53;;;15.90;69.30;;;;;;4940676;28;20054;-72
2022/04/23 08:57:35;;;;;;;10.55;8.10;;;15.90;68.80;;;;;;4948882;28;20054;-72
2022/04/23 09:00:00;;;;;;;11.73;8.23;;;16.00;67.40;;;;;;4952851;28;20039;-72
2022/04/23 09:02:28;;;;;;;9.20;7.45;;;16.00;68.10;;;;;;4976406;28;20174;-72
2022/04/23 09:04:54;;;;;;;8.63;7.80;;;16.10;68.70;;;;;;4961353;28;20051;-72
2022/04/23 09:07:25;;;;;;;8.55;7.82;;;16.10;68.60;;;;;;4942126;29;20058;-72
2022/04/23 09:09:56;;;;;;;11.43;8.05;;;16.30;68.70;;;;;;4954981;29;20043;-72
2022/04/23 09:12:24;;;;;;;13.45;8.25;;;16.40;68.40;;;;;;4955252;29;20043;-72
2022/04/23 09:14:51;;;;;;;12.95;8.57;;;16.50;65.80;;;;;;4965481;28;20039;-72
2022/04/23 09:25:41;;;;;;;11.57;8.15;;;16.80;64.30;;;;;;4954758;29;20047;-72
2022/04/23 09:28:20;;;;;;;8.40;7.70;;;17.00;64.40;;;;;;4954343;28;20130;-72
2022/04/23 09:30:51;;;;;;;12.48;8.18;;;17.10;65.30;;;;;;4954545;29;20132;-72
2022/04/23 09:33:18;;;;;;;9.80;8.35;;;17.20;62.70;;;;;;4950448;29;20094;-72
2022/04/23 09:35:57;;;;;;;11.32;8.20;;;17.30;62.20;;;;;;4956008;28;20047;-72
2022/04/23 09:38:23;;;;;;;13.55;8.00;;;17.30;62.30;;;;;;4954521;28;20102;-72
2022/04/23 09:40:54;;;;;;;9.23;7.75;;;17.40;62.00;;;;;;4954437;29;20047;-72
2022/04/23 09:43:31;;;;;;;10.18;8.45;;;17.50;64.90;;;;;;4954430;29;20051;-72
2022/04/23 09:46:03;;;;;;;10.38;8.27;;;17.80;63.20;;;;;;4954464;29;20047;-72
2022/04/23 09:48:30;;;;;;;12.55;8.18;;;17.90;61.40;;;;;;4951123;28;20054;-72
2022/04/23 09:50:56;;;;;;;9.13;7.93;;;18.00;60.90;;;;;;4937922;29;20035;-72
2022/04/23 09:53:27;;;;;;;12.07;8.20;;;18.20;60.40;;;;;;4954448;28;20043;-72
2022/04/23 09:55:59;;;;;;;10.10;8.25;;;18.30;58.60;;;;;;4955397;28;20043;-72
2022/04/23 09:58:32;;;;;;;11.70;8.27;;;18.40;58.30;;;;;;4954416;28;20070;-72
2022/04/23 10:00:59;;;;;;;12.32;8.30;;;18.50;57.90;;;;;;4953984;29;20039;-72
2022/04/23 10:03:30;;;;;;;9.35;8.35;;;18.60;59.00;;;;;;4954121;29;20050;-72
2022/04/23 10:05:57;;;;;;;10.30;8.60;;;18.70;59.30;;;;;;4947906;28;20092;-72
2022/04/23 10:08:35;;;;;;;9.27;8.38;;;18.80;58.20;;;;;;4954186;28;20043;-72
2022/04/23 10:11:19;;;;;;;15.20;9.65;;;18.90;56.80;;;;;;4954142;29;20478;-72
2022/04/23 10:13:48;;;;;;;18.17;10.18;;;19.00;56.10;;;;;;4955280;29;20043;-72
2022/04/23 10:16:15;;;;;;;12.52;8.05;;;19.10;54.00;;;;;;4954257;29;20047;-72
2022/04/23 10:18:42;;;;;;;10.52;8.13;;;19.10;55.50;;;;;;4953986;28;20158;-72
2022/04/23 10:21:17;;;;;;;9.48;8.18;;;19.20;53.00;;;;;;4969873;28;20055;-72
2022/04/23 10:24:05;;;;;;;9.82;8.82;;;19.20;53.90;;;;;;4953979;28;20041;-72
2022/04/23 10:26:41;;;;;;;11.20;8.30;;;19.20;54.50;;;;;;4955036;29;20047;-72
2022/04/23 10:29:14;;;;;;;9.65;8.63;;;19.30;54.00;;;;;;4953928;28;20043;-72
2022/04/23 10:31:43;;;;;;;9.43;7.43;;;19.50;54.30;;;;;;4953687;29;20142;-72
2022/04/23 10:34:32;;;;;;;10.57;7.50;;;19.60;50.80;;;;;;4954030;29;20138;-72
2022/04/23 10:37:21;;;;;;;11.88;8.85;;;19.70;53.00;;;;;;4953865;29;20047;-72
2022/04/23 10:39:53;;;;;;;12.00;8.45;;;19.80;51.40;;;;;;4947978;28;20046;-72
2022/04/23 10:42:23;;;;;;;10.97;8.60;;;19.80;53.40;;;;;;4952978;28;20047;-72
2022/04/23 10:44:50;;;;;;;10.30;8.32;;;20.00;51.30;;;;;;4958749;28;20135;-72
2022/04/23 10:47:30;;;;;;;12.70;7.32;;;20.00;49.80;;;;;;4952716;28;20039;-72
2022/04/23 10:50:25;;;;;;;8.05;7.20;;;20.10;50.30;;;;;;4956280;28;20047;-72
2022/04/23 10:52:55;;;;;;;13.07;7.75;;;20.10;49.60;;;;;;4935617;29;20050;-72
2022/04/23 10:55:22;;;;;;;11.48;7.88;;;20.20;49.30;;;;;;4967657;28;20054;-72
2022/04/23 10:57:50;;;;;;;11.98;7.88;;;20.20;48.90;;;;;;4940415;28;20052;-71
2022/04/23 11:00:18;;;;;;;12.23;7.97;;;20.20;49.30;;;;;;4960041;28;20159;-71
2022/04/23 11:03:08;;;;;;;12.88;7.15;;;20.30;48.80;;;;;;4951100;28;20051;-72
2022/04/23 11:14:44;;;;;;;10.93;8.27;;;20.40;48.00;;;;;;4951257;29;20059;-72
2022/04/23 11:17:23;;;;;;;14.38;7.30;;;20.40;48.80;;;;;;4954477;28;20039;-72
2022/04/23 11:19:52;;;;;;;8.55;7.10;;;20.50;49.70;;;;;;4952645;29;20043;-72
2022/04/23 11:22:20;;;;;;;9.55;7.20;;;20.70;49.30;;;;;;4953220;29;20064;-72
2022/04/23 11:24:48;;;;;;;8.32;7.40;;;20.90;46.30;;;;;;4954004;28;20075;-72
2022/04/23 11:27:24;;;;;;;8.82;6.88;;;20.90;47.30;;;;;;4952902;28;20067;-72
2022/04/23 11:29:54;;;;;;;12.18;7.28;;;20.90;47.50;;;;;;4952751;29;20122;-72
2022/04/23 11:32:27;;;;;;;9.15;7.13;;;21.00;46.30;;;;;;4952467;29;20127;-72
2022/04/23 11:35:03;;;;;;;7.38;6.68;;;21.00;45.20;;;;;;4953973;28;20049;-72
2022/04/23 11:37:39;;;;;;;9.60;7.40;;;21.10;46.90;;;;;;4953765;28;20051;-72
2022/04/23 11:40:13;;;;;;;9.20;6.05;;;21.10;45.60;;;;;;4952310;29;20055;-72
2022/04/23 11:42:41;;;;;;;8.63;7.07;;;21.20;47.50;;;;;;4952777;29;20071;-72
2022/04/23 11:45:08;;;;;;;8.52;7.53;;;21.30;46.00;;;;;;4952456;29;20043;-72
2022/04/23 11:47:34;;;;;;;8.07;7.25;;;21.50;45.60;;;;;;4963889;28;20043;-72
2022/04/23 11:50:14;;;;;;;10.30;6.85;;;21.60;45.10;;;;;;4945934;29;20090;-72
2022/04/23 11:52:55;;;;;;;7.63;6.70;;;21.70;45.40;;;;;;4952372;29;20039;-72
2022/04/23 11:55:23;;;;;;;8.97;7.23;;;21.80;44.80;;;;;;4953616;28;20047;-72
2022/04/23 11:58:00;;;;;;;9.05;7.00;;;21.80;45.50;;;;;;4960258;28;20298;-72
2022/04/23 12:00:27;;;;;;;10.57;7.40;;;21.90;44.50;;;;;;4958626;28;20730;-72
2022/04/23 12:02:54;;;;;;;8.07;6.95;;;22.00;42.90;;;;;;4958305;28;20375;-73
2022/04/23 12:05:25;;;;;;;8.77;6.13;;;22.00;44.40;;;;;;4942257;29;20505;-72
2022/04/23 12:07:51;;;;;;;8.32;5.88;;;22.10;45.00;;;;;;4934394;29;20082;-73
2022/04/23 12:10:25;;;;;;;7.38;5.85;;;22.10;43.00;;;;;;4936882;28;20448;-72
2022/04/23 12:12:51;;;;;;;8.80;6.00;;;22.10;42.40;;;;;;4975003;28;20655;-72
2022/04/23 12:15:20;;;;;;;7.93;5.57;;;22.30;41.20;;;;;;4972015;28;20055;-71
2022/04/23 12:17:51;;;;;;;6.80;5.72;;;22.20;42.40;;;;;;4949978;28;20040;-72
2022/04/23 12:20:21;;;;;;;7.85;5.40;;;22.10;45.40;;;;;;4937887;29;20043;-71
2022/04/23 12:22:54;;;;;;;11.18;5.72;;;22.20;43.10;;;;;;4947702;29;20127;-71
2022/04/23 12:25:19;;;;;;;7.93;5.72;;;22.50;42.90;;;;;;4957021;29;20047;-72
2022/04/23 12:27:58;;;;;;;6.47;5.10;;;22.40;41.60;;;;;;4956165;28;20405;-72
2022/04/23 12:42:20;;;;;;;7.85;5.22;;;22.80;40.40;;;;;;4955276;29;20485;-71
2022/04/23 12:44:46;;;;;;;9.88;5.70;;;22.80;41.30;;;;;;4952310;28;20407;-72
2022/04/23 12:47:17;;;;;;;15.63;5.40;;;22.80;39.80;;;;;;4955158;28;20126;-72
2022/04/23 12:49:54;;;;;;;6.20;4.75;;;22.70;40.40;;;;;;4937528;29;20471;-71
2022/04/23 12:52:21;;;;;;;6.32;4.60;;;22.80;39.70;;;;;;4948801;29;20054;-72
2022/04/23 12:55:14;;;;;;;9.82;4.80;;;22.90;39.70;;;;;;4955840;29;20410;-72
2022/04/23 12:57:48;;;;;;;7.75;5.10;;;23.00;41.30;;;;;;4971597;28;20043;-72
2022/04/23 13:00:22;;;;;;;7.80;4.75;;;23.10;41.00;;;;;;4955484;29;20122;-72
2022/04/23 13:02:53;;;;;;;5.75;4.30;;;23.30;42.00;;;;;;4955621;29;20075;-72
2022/04/23 13:05:20;;;;;;;4.63;4.20;;;23.50;38.30;;;;;;4955362;28;20085;-72
2022/04/23 13:10:30;;;;;;;4.72;4.22;;;23.70;39.50;;;;;;4935856;29;20054;-72
2022/04/23 13:12:56;;;;;;;4.45;3.90;;;23.60;38.50;;;;;;4944591;29;20043;-72
2022/04/23 13:15:23;;;;;;;8.93;4.10;;;23.70;37.30;;;;;;4944789;29;20051;-72
2022/04/23 13:17:49;;;;;;;5.82;4.60;;;23.70;36.40;;;;;;4935850;29;20091;-72
2022/04/23 13:20:15;;;;;;;4.97;4.50;;;23.70;35.80;;;;;;4946896;29;20083;-72
2022/04/23 13:22:43;;;;;;;7.45;4.50;;;23.60;37.00;;;;;;4956318;28;20039;-72
2022/04/23 13:25:10;;;;;;;5.10;3.90;;;23.40;37.80;;;;;;4954152;28;20043;-72